Time;durP1;ratioP1;P1;durP2;ratioP2;P2;SDS_P1;SDS_P2;PMS_P1;PMS_P2;Temp;Humidity;BMP_temperature;BMP_pressure;BME280_temperature;BME280_humidity;BME280_pressure;Samples;Min_cycle;Max_cycle;Signal;HPM_P1;HPM_P2
2022/03/16 00:00:14;;;;;;;2.13;0.55;;;24.90;99.90;;;;;;4930097;29;20034;-73
2022/03/16 00:02:41;;;;;;;2.90;0.60;;;24.90;99.90;;;;;;4935693;29;20502;-71
2022/03/16 00:05:09;;;;;;;3.00;0.80;;;24.90;99.90;;;;;;4927865;29;20032;-72
2022/03/16 00:07:36;;;;;;;1.13;0.80;;;25.10;99.90;;;;;;4925208;29;20266;-71
2022/03/16 00:10:07;;;;;;;0.60;0.40;;;24.80;99.90;;;;;;4933300;29;20024;-71
2022/03/16 00:12:39;;;;;;;1.55;0.90;;;24.60;99.90;;;;;;4930839;29;20032;-70
2022/03/16 00:15:07;;;;;;;0.88;0.40;;;24.70;99.90;;;;;;4932030;29;20035;-72
2022/03/16 00:17:35;;;;;;;2.45;0.52;;;24.60;99.90;;;;;;4931806;29;20032;-72
2022/03/16 00:20:03;;;;;;;0.55;0.28;;;24.50;99.90;;;;;;4930417;29;20449;-71
2022/03/16 00:22:30;;;;;;;0.43;0.20;;;24.70;99.90;;;;;;4930393;29;20399;-71
2022/03/16 00:24:57;;;;;;;0.20;0.13;;;24.70;99.90;;;;;;4931887;29;20027;-71
2022/03/16 00:27:25;;;;;;;0.73;0.55;;;24.70;99.90;;;;;;4931513;28;20118;-72
2022/03/16 00:29:52;;;;;;;1.77;0.30;;;24.80;99.90;;;;;;4932546;29;20035;-71
2022/03/16 00:32:19;;;;;;;0.77;0.32;;;24.90;99.90;;;;;;4932342;29;20126;-72
2022/03/16 00:34:47;;;;;;;0.88;0.60;;;25.30;99.90;;;;;;4931954;29;20415;-71
2022/03/16 00:37:15;;;;;;;1.38;0.40;;;25.80;99.90;;;;;;4931096;29;20031;-71
2022/03/16 00:39:42;;;;;;;1.15;0.60;;;26.30;99.90;;;;;;4931159;29;20042;-72
2022/03/16 00:42:11;;;;;;;0.98;0.32;;;26.80;99.90;;;;;;4929696;29;20036;-71
2022/03/16 00:44:39;;;;;;;1.55;0.57;;;27.20;99.90;;;;;;4929028;29;20028;-70
2022/03/16 00:47:07;;;;;;;1.63;1.13;;;26.80;99.90;;;;;;4922052;29;20023;-70
2022/03/16 00:49:34;;;;;;;1.23;0.70;;;27.00;99.90;;;;;;4932159;29;20509;-70
2022/03/16 00:52:02;;;;;;;2.97;0.80;;;27.20;99.90;;;;;;4922430;29;20125;-70
2022/03/16 00:54:30;;;;;;;1.77;0.50;;;26.90;99.90;;;;;;4931807;28;20036;-71
2022/03/16 00:56:58;;;;;;;6.30;1.17;;;26.80;99.90;;;;;;4929064;28;20482;-71
2022/03/16 00:59:25;;;;;;;1.80;0.80;;;26.90;99.90;;;;;;4929196;29;20439;-70
2022/03/16 01:01:52;;;;;;;3.60;0.77;;;26.70;99.90;;;;;;4930136;29;20040;-72
2022/03/16 01:04:20;;;;;;;3.42;0.60;;;26.80;99.90;;;;;;4932826;28;20549;-71
2022/03/16 01:06:48;;;;;;;2.85;0.50;;;27.50;99.90;;;;;;4928252;29;20038;-72
2022/03/16 01:09:15;;;;;;;2.33;0.55;;;27.70;99.90;;;;;;4926156;29;20071;-72
2022/03/16 01:11:42;;;;;;;3.17;0.90;;;28.20;99.90;;;;;;4924296;29;20111;-74
2022/03/16 01:14:10;;;;;;;2.15;0.65;;;28.60;99.90;;;;;;4925761;29;20505;-76
2022/03/16 01:16:39;;;;;;;2.92;0.70;;;28.70;99.90;;;;;;4933207;29;20121;-74
2022/03/16 01:19:07;;;;;;;1.55;0.60;;;28.20;99.90;;;;;;4929075;29;20179;-75
2022/03/16 01:21:35;;;;;;;2.85;0.32;;;27.80;99.90;;;;;;4924139;29;20083;-75
2022/03/16 01:24:02;;;;;;;3.58;0.60;;;27.20;99.90;;;;;;4925144;29;20031;-72
2022/03/16 01:26:29;;;;;;;3.50;0.40;;;27.00;99.90;;;;;;4924630;29;20024;-73
2022/03/16 01:28:57;;;;;;;3.58;0.82;;;26.60;99.90;;;;;;4928194;29;20414;-73
2022/03/16 01:31:25;;;;;;;2.75;0.60;;;26.90;99.90;;;;;;4930038;29;20549;-73
2022/03/16 01:33:53;;;;;;;3.17;0.70;;;27.00;99.90;;;;;;4931999;29;20035;-72
2022/03/16 01:36:20;;;;;;;2.22;0.80;;;27.20;99.90;;;;;;4930604;29;20415;-74
2022/03/16 01:38:48;;;;;;;2.75;0.73;;;27.50;99.90;;;;;;4930883;29;20028;-75
2022/03/16 01:41:15;;;;;;;1.30;0.40;;;27.60;99.90;;;;;;4929565;28;20035;-74
2022/03/16 01:43:43;;;;;;;1.27;0.52;;;28.00;99.90;;;;;;4929016;29;20769;-73
2022/03/16 01:46:13;;;;;;;2.83;0.60;;;28.50;99.90;;;;;;4925997;29;20478;-74
2022/03/16 01:48:40;;;;;;;1.70;0.50;;;29.10;99.90;;;;;;4928450;29;20051;-75
2022/03/16 01:51:09;;;;;;;2.97;1.42;;;29.30;99.40;;;;;;4931440;29;20027;-74
2022/03/16 01:53:36;;;;;;;2.67;0.70;;;29.10;99.10;;;;;;4931211;29;20426;-75
2022/03/16 01:56:03;;;;;;;4.68;0.85;;;28.70;98.20;;;;;;4927219;29;20131;-75
2022/03/16 01:58:31;;;;;;;3.50;0.68;;;28.90;99.90;;;;;;4934172;29;20032;-75
2022/03/16 02:00:58;;;;;;;1.33;0.40;;;29.00;99.60;;;;;;4931746;29;20477;-73
2022/03/16 02:03:25;;;;;;;2.70;0.60;;;28.90;99.00;;;;;;4932126;29;20499;-74
2022/03/16 02:05:53;;;;;;;2.22;1.10;;;28.80;99.60;;;;;;4928924;29;20176;-74
2022/03/16 02:08:20;;;;;;;3.75;0.82;;;29.00;99.80;;;;;;4925367;29;20044;-74
2022/03/16 02:10:48;;;;;;;3.75;0.80;;;28.70;98.50;;;;;;4928872;29;20035;-75
2022/03/16 02:13:15;;;;;;;2.35;0.82;;;28.50;99.40;;;;;;4927420;29;20023;-73
2022/03/16 02:15:42;;;;;;;3.67;0.90;;;28.40;98.80;;;;;;4927425;29;20039;-73
2022/03/16 02:18:09;;;;;;;2.58;0.85;;;28.60;99.90;;;;;;4930679;29;20559;-72
2022/03/16 02:20:37;;;;;;;2.75;0.80;;;29.00;99.60;;;;;;4923133;29;20055;-72
2022/03/16 02:23:07;;;;;;;2.20;0.70;;;29.50;98.40;;;;;;4922726;28;20051;-73
2022/03/16 02:25:51;;;;;;;1.27;0.98;;;29.50;98.60;;;;;;4925144;28;20036;-72
2022/03/16 02:28:20;;;;;;;4.72;1.05;;;28.90;97.00;;;;;;4926632;29;20043;-72
2022/03/16 02:30:48;;;;;;;4.03;0.65;;;28.50;98.70;;;;;;4928464;28;20024;-71
2022/03/16 02:33:15;;;;;;;2.90;1.40;;;28.70;97.20;;;;;;4932070;28;20382;-72
2022/03/16 02:35:43;;;;;;;5.50;1.25;;;28.90;98.30;;;;;;4932403;28;20576;-72
2022/03/16 02:38:11;;;;;;;2.72;1.02;;;28.90;97.70;;;;;;4929507;29;20071;-72
2022/03/16 02:40:39;;;;;;;5.32;1.00;;;28.70;97.90;;;;;;4933890;29;20028;-72
2022/03/16 02:43:06;;;;;;;3.47;0.90;;;28.70;98.30;;;;;;4926805;29;20111;-72
2022/03/16 02:45:33;;;;;;;2.53;0.80;;;28.60;98.20;;;;;;4932552;29;20086;-77
2022/03/16 02:48:01;;;;;;;4.05;0.90;;;29.20;97.80;;;;;;4934295;29;20039;-75
2022/03/16 02:50:28;;;;;;;3.50;0.60;;;29.80;96.60;;;;;;4932460;29;20024;-72
2022/03/16 02:52:56;;;;;;;4.40;0.70;;;30.10;96.20;;;;;;4931261;29;20066;-75
2022/03/16 02:55:24;;;;;;;2.50;0.70;;;30.50;96.60;;;;;;4929858;28;20114;-75
2022/03/16 02:57:51;;;;;;;2.88;0.80;;;31.10;95.60;;;;;;4932521;29;20039;-74
2022/03/16 03:00:18;;;;;;;2.75;0.82;;;31.00;97.10;;;;;;4935709;29;20044;-74
2022/03/16 03:02:46;;;;;;;4.03;0.80;;;30.50;97.00;;;;;;4931771;29;20039;-74
2022/03/16 03:05:13;;;;;;;1.95;0.40;;;29.90;97.70;;;;;;4934227;29;20024;-75
2022/03/16 03:07:40;;;;;;;1.95;0.57;;;29.40;98.00;;;;;;4934671;28;20047;-74
2022/03/16 03:10:08;;;;;;;4.45;1.08;;;29.20;98.40;;;;;;4935892;28;20079;-74
2022/03/16 03:12:36;;;;;;;2.05;0.80;;;29.70;98.50;;;;;;4933179;29;20034;-76
2022/03/16 03:15:05;;;;;;;4.53;1.15;;;29.70;97.80;;;;;;4938075;29;20086;-76
2022/03/16 03:17:33;;;;;;;3.53;0.90;;;29.10;98.30;;;;;;4940672;28;20046;-75
2022/03/16 03:20:00;;;;;;;3.95;0.75;;;28.60;98.80;;;;;;4932495;28;21306;-76
2022/03/16 03:22:28;;;;;;;2.95;0.90;;;28.40;99.10;;;;;;4928324;29;20039;-74
2022/03/16 03:24:56;;;;;;;5.57;1.02;;;28.10;99.40;;;;;;4929457;29;20106;-76
2022/03/16 03:27:24;;;;;;;2.90;0.60;;;28.00;99.50;;;;;;4924534;29;20046;-74
2022/03/16 03:29:53;;;;;;;3.63;0.60;;;27.90;99.60;;;;;;4931853;29;20035;-73
2022/03/16 03:32:20;;;;;;;3.05;0.60;;;27.70;99.70;;;;;;4928609;29;20042;-75
2022/03/16 03:34:51;;;;;;;2.58;0.88;;;27.70;99.70;;;;;;4933545;29;20078;-74
2022/03/16 03:37:19;;;;;;;5.15;0.93;;;27.70;99.70;;;;;;4935190;28;20069;-75
2022/03/16 03:39:47;;;;;;;4.68;1.20;;;27.60;99.90;;;;;;4938377;29;20095;-75
2022/03/16 03:42:14;;;;;;;2.97;1.15;;;27.40;99.90;;;;;;4935649;28;20043;-75
2022/03/16 03:44:42;;;;;;;2.53;0.93;;;27.20;99.90;;;;;;4937342;29;20540;-73
2022/03/16 03:47:10;;;;;;;4.00;1.20;;;27.30;99.90;;;;;;4938042;29;20028;-76
2022/03/16 03:49:40;;;;;;;3.72;0.80;;;28.00;99.90;;;;;;4934171;28;20044;-76
2022/03/16 03:52:07;;;;;;;3.88;1.13;;;28.70;99.90;;;;;;4930565;29;20111;-76
2022/03/16 03:54:35;;;;;;;1.73;0.65;;;29.30;98.90;;;;;;4926248;29;20102;-75
2022/03/16 03:57:03;;;;;;;3.15;1.20;;;29.60;98.50;;;;;;4927653;29;20051;-74
2022/03/16 03:59:31;;;;;;;7.72;1.80;;;29.90;99.10;;;;;;4925475;29;20056;-74
2022/03/16 04:01:58;;;;;;;2.58;0.90;;;29.70;97.90;;;;;;4931272;29;20122;-75
2022/03/16 04:04:26;;;;;;;5.03;1.15;;;29.80;98.10;;;;;;4932513;29;20083;-76
2022/03/16 04:06:53;;;;;;;2.22;0.70;;;29.60;97.70;;;;;;4931051;29;20226;-78
2022/03/16 04:09:20;;;;;;;5.78;1.17;;;29.10;97.80;;;;;;4926804;28;20040;-78
2022/03/16 04:11:48;;;;;;;3.58;0.80;;;28.60;98.20;;;;;;4925316;29;20034;-77
2022/03/16 04:14:16;;;;;;;4.50;0.88;;;28.00;98.80;;;;;;4925445;29;20043;-76
2022/03/16 04:16:44;;;;;;;4.10;1.30;;;27.60;99.40;;;;;;4924557;29;20059;-76
2022/03/16 04:19:11;;;;;;;4.07;0.88;;;27.20;99.80;;;;;;4924194;29;20054;-77
2022/03/16 04:21:39;;;;;;;4.60;0.98;;;26.90;99.90;;;;;;4924687;29;20507;-79
2022/03/16 04:24:07;;;;;;;2.55;0.57;;;26.70;99.90;;;;;;4925170;29;20538;-74
2022/03/16 04:26:34;;;;;;;3.83;0.70;;;26.50;99.90;;;;;;4926410;29;20109;-81
2022/03/16 04:29:02;;;;;;;2.45;0.50;;;26.20;99.90;;;;;;4926928;29;20051;-78
2022/03/16 04:31:29;;;;;;;2.22;0.50;;;25.80;99.90;;;;;;4923284;29;20031;-75
2022/03/16 04:33:57;;;;;;;2.47;1.23;;;25.70;99.90;;;;;;4923331;29;20036;-75
2022/03/16 04:36:28;;;;;;;4.18;1.05;;;25.70;99.90;;;;;;4923134;29;20116;-75
2022/03/16 04:38:57;;;;;;;2.20;0.68;;;25.60;99.90;;;;;;4923882;29;20078;-75
2022/03/16 04:41:25;;;;;;;5.68;1.13;;;25.60;99.90;;;;;;4920538;29;20047;-74
2022/03/16 04:43:52;;;;;;;2.30;0.73;;;25.50;99.90;;;;;;4922676;29;20042;-75
2022/03/16 04:46:20;;;;;;;2.20;0.68;;;25.40;99.90;;;;;;4920885;29;20087;-77
2022/03/16 04:48:50;;;;;;;3.28;0.52;;;25.40;99.90;;;;;;4926158;28;20036;-77
2022/03/16 04:51:17;;;;;;;2.97;0.60;;;25.40;99.90;;;;;;4922969;29;20078;-74
2022/03/16 04:53:45;;;;;;;4.43;0.55;;;25.30;99.90;;;;;;4925372;29;20035;-73
2022/03/16 04:56:12;;;;;;;3.20;0.70;;;25.30;99.90;;;;;;4929866;29;20527;-74
2022/03/16 04:58:40;;;;;;;6.22;0.68;;;25.10;99.90;;;;;;4922846;29;20024;-74
2022/03/16 05:01:07;;;;;;;7.25;1.45;;;25.00;99.90;;;;;;4924608;29;20490;-76
2022/03/16 05:03:34;;;;;;;4.05;1.00;;;24.70;99.90;;;;;;4922572;29;20142;-74
2022/03/16 05:06:02;;;;;;;2.15;0.98;;;24.20;99.90;;;;;;4922727;29;20123;-77
2022/03/16 05:08:29;;;;;;;3.38;1.02;;;24.00;99.90;;;;;;4922226;29;20047;-78
2022/03/16 05:10:56;;;;;;;7.22;0.95;;;24.00;99.90;;;;;;4924604;29;20031;-75
2022/03/16 05:13:24;;;;;;;2.35;1.27;;;24.00;99.90;;;;;;4924507;29;20027;-79
2022/03/16 05:15:51;;;;;;;5.63;0.80;;;24.00;99.90;;;;;;4924627;29;20130;-77
2022/03/16 05:18:18;;;;;;;1.40;0.55;;;24.10;99.90;;;;;;4923480;29;20058;-76
2022/03/16 05:20:46;;;;;;;6.75;1.02;;;24.20;99.90;;;;;;4923334;29;20043;-77
2022/03/16 05:23:13;;;;;;;4.38;0.93;;;24.10;99.90;;;;;;4925737;29;20058;-77
2022/03/16 05:25:41;;;;;;;5.55;1.00;;;24.20;99.90;;;;;;4930678;28;20041;-76
2022/03/16 05:28:09;;;;;;;1.45;0.60;;;24.30;99.90;;;;;;4925627;29;20075;-76
2022/03/16 05:30:36;;;;;;;2.55;0.95;;;24.30;99.90;;;;;;4924415;29;20127;-77
2022/03/16 05:33:03;;;;;;;3.38;0.52;;;24.20;99.90;;;;;;4924596;28;20024;-79
2022/03/16 05:35:31;;;;;;;3.08;0.80;;;24.20;99.90;;;;;;4923613;29;20070;-76
2022/03/16 05:38:00;;;;;;;1.58;0.65;;;24.20;99.90;;;;;;4923736;29;20020;-76
2022/03/16 05:40:27;;;;;;;6.60;0.80;;;24.10;99.90;;;;;;4923118;29;20023;-76
2022/03/16 05:42:58;;;;;;;4.25;0.85;;;24.20;99.90;;;;;;4924962;29;20047;-75
2022/03/16 05:45:27;;;;;;;2.75;0.65;;;24.20;99.90;;;;;;4924153;29;20079;-76
2022/03/16 05:47:55;;;;;;;4.43;2.13;;;24.10;99.90;;;;;;4928991;29;20039;-77
2022/03/16 05:50:22;;;;;;;1.27;0.50;;;24.10;99.90;;;;;;4925310;29;20042;-75
2022/03/16 05:52:49;;;;;;;2.50;0.80;;;24.00;99.90;;;;;;4922600;29;20028;-76
2022/03/16 05:55:17;;;;;;;6.85;1.27;;;23.90;99.90;;;;;;4924358;29;21308;-77
2022/03/16 05:57:44;;;;;;;5.80;0.70;;;23.90;99.90;;;;;;4923288;29;20077;-75
2022/03/16 06:00:14;;;;;;;3.50;0.63;;;24.00;99.90;;;;;;4923028;29;20036;-76
2022/03/16 06:02:43;;;;;;;4.15;0.90;;;24.00;99.90;;;;;;4924066;29;20048;-77
2022/03/16 06:05:11;;;;;;;2.50;0.65;;;24.00;99.90;;;;;;4923999;28;20127;-75
2022/03/16 06:07:39;;;;;;;1.73;0.43;;;23.90;99.90;;;;;;4923930;29;20039;-76
2022/03/16 06:10:07;;;;;;;3.10;0.70;;;23.80;99.90;;;;;;4932636;29;20118;-79
2022/03/16 06:12:49;;;;;;;1.13;0.35;;;23.80;99.90;;;;;;4926774;29;20024;-76
2022/03/16 06:15:16;;;;;;;1.58;1.00;;;23.90;99.90;;;;;;4929180;29;20036;-77
2022/03/16 06:17:43;;;;;;;4.40;1.83;;;23.90;99.90;;;;;;4928552;29;20118;-79
2022/03/16 06:20:11;;;;;;;2.22;0.73;;;24.00;99.90;;;;;;4931296;29;20023;-79
2022/03/16 06:22:39;;;;;;;3.42;1.00;;;23.90;99.90;;;;;;4931714;29;20439;-76
2022/03/16 06:25:07;;;;;;;4.53;0.65;;;24.10;99.90;;;;;;4931983;29;20039;-76
2022/03/16 06:27:34;;;;;;;1.50;0.50;;;24.10;99.90;;;;;;4929915;29;20071;-75
2022/03/16 06:30:03;;;;;;;6.20;1.98;;;24.10;99.90;;;;;;4928106;29;20459;-75
2022/03/16 06:32:30;;;;;;;3.33;0.50;;;24.30;99.90;;;;;;4929217;29;20026;-77
2022/03/16 06:34:57;;;;;;;2.08;0.60;;;24.40;99.90;;;;;;4929684;29;20067;-78
2022/03/16 06:37:25;;;;;;;2.15;0.73;;;24.50;99.90;;;;;;4928392;29;20027;-77
2022/03/16 06:39:52;;;;;;;2.70;0.43;;;24.50;99.90;;;;;;4930644;29;20024;-77
2022/03/16 06:42:19;;;;;;;1.95;0.70;;;24.40;99.90;;;;;;4926184;29;20035;-76
2022/03/16 06:44:49;;;;;;;2.80;0.95;;;24.40;99.90;;;;;;4926995;28;20482;-75
2022/03/16 06:47:17;;;;;;;2.70;0.77;;;24.40;99.90;;;;;;4926878;29;20036;-80
2022/03/16 06:49:45;;;;;;;4.57;0.50;;;24.40;99.90;;;;;;4926193;28;20035;-80
2022/03/16 06:52:13;;;;;;;6.75;0.93;;;24.30;99.90;;;;;;4925235;29;20023;-76
2022/03/16 06:54:40;;;;;;;2.95;0.77;;;24.30;99.90;;;;;;4927331;29;20363;-73
2022/03/16 06:57:07;;;;;;;1.55;1.15;;;24.30;99.90;;;;;;4927687;29;20024;-77
2022/03/16 06:59:35;;;;;;;3.25;0.52;;;24.20;99.90;;;;;;4927705;28;20118;-77
2022/03/16 07:02:05;;;;;;;3.10;0.75;;;24.20;99.90;;;;;;4945823;28;20195;-77
2022/03/16 07:04:32;;;;;;;2.47;0.47;;;24.20;99.90;;;;;;4927173;29;20043;-77
2022/03/16 07:06:59;;;;;;;3.70;0.60;;;24.20;99.90;;;;;;4923813;29;20745;-74
2022/03/16 07:09:27;;;;;;;5.38;1.20;;;24.20;99.90;;;;;;4933808;29;20067;-76
2022/03/16 07:11:55;;;;;;;10.75;1.00;;;24.20;99.90;;;;;;4944725;28;20532;-74
2022/03/16 07:14:31;;;;;;;3.60;0.95;;;24.20;99.90;;;;;;4933038;29;20038;-75
2022/03/16 07:16:59;;;;;;;5.55;0.95;;;24.20;99.90;;;;;;4934358;29;20023;-75
2022/03/16 07:19:28;;;;;;;6.80;0.93;;;24.20;99.90;;;;;;4938745;29;20023;-74
2022/03/16 07:21:58;;;;;;;6.45;1.77;;;24.20;99.90;;;;;;4939631;29;20054;-75
2022/03/16 07:24:26;;;;;;;6.43;1.08;;;24.20;99.90;;;;;;4935653;28;20418;-75
2022/03/16 07:26:55;;;;;;;6.47;0.93;;;24.10;99.90;;;;;;4933520;29;20028;-76
2022/03/16 07:29:23;;;;;;;4.18;0.73;;;24.10;99.90;;;;;;4935894;28;20046;-76
2022/03/16 07:31:51;;;;;;;6.43;1.42;;;24.10;99.90;;;;;;4932915;29;20028;-75
2022/03/16 07:34:19;;;;;;;5.22;1.20;;;24.10;99.90;;;;;;4934363;29;20039;-74
2022/03/16 07:36:46;;;;;;;4.53;1.00;;;24.10;99.90;;;;;;4934767;29;20046;-74
2022/03/16 07:39:13;;;;;;;4.28;0.80;;;24.10;99.90;;;;;;4934822;29;20024;-73
2022/03/16 07:41:41;;;;;;;5.82;0.90;;;24.10;99.90;;;;;;4928557;29;20419;-75
2022/03/16 07:44:09;;;;;;;7.03;1.08;;;24.10;99.90;;;;;;4935360;29;20027;-75
2022/03/16 07:46:36;;;;;;;3.20;0.88;;;24.20;99.90;;;;;;4934042;29;20064;-76
2022/03/16 07:49:03;;;;;;;3.63;1.55;;;24.20;99.90;;;;;;4934625;29;20039;-76
2022/03/16 07:51:32;;;;;;;3.53;0.95;;;24.10;99.90;;;;;;4931417;29;20027;-76
2022/03/16 07:53:59;;;;;;;3.42;1.00;;;24.10;99.90;;;;;;4921475;29;20174;-74
2022/03/16 07:56:26;;;;;;;5.03;0.80;;;24.10;99.90;;;;;;4934788;29;20154;-77
2022/03/16 07:58:54;;;;;;;4.32;0.85;;;24.00;99.90;;;;;;4934310;29;20135;-76
2022/03/16 08:01:21;;;;;;;1.67;0.50;;;23.90;99.90;;;;;;4931993;29;20032;-76
2022/03/16 08:03:49;;;;;;;3.67;0.52;;;23.80;99.90;;;;;;4933366;29;20480;-77
2022/03/16 08:06:16;;;;;;;7.75;1.75;;;23.80;99.90;;;;;;4934558;29;20024;-75
2022/03/16 08:08:43;;;;;;;4.38;1.30;;;23.80;99.90;;;;;;4938538;29;20047;-75
2022/03/16 08:11:11;;;;;;;4.80;0.70;;;23.70;99.90;;;;;;4937016;29;20027;-74
2022/03/16 08:13:38;;;;;;;5.00;0.70;;;23.70;99.90;;;;;;4935686;29;20649;-76
2022/03/16 08:16:06;;;;;;;3.42;1.40;;;23.70;99.90;;;;;;4935438;28;20059;-75
2022/03/16 08:18:34;;;;;;;4.57;0.73;;;23.70;99.90;;;;;;4934582;29;20039;-75
2022/03/16 08:21:02;;;;;;;4.50;0.60;;;23.60;99.90;;;;;;4933562;29;20024;-74
2022/03/16 08:23:30;;;;;;;2.38;0.80;;;23.50;99.90;;;;;;4933879;29;20031;-76
2022/03/16 08:25:58;;;;;;;5.95;0.98;;;23.40;99.90;;;;;;4936630;29;20070;-78
2022/03/16 08:28:26;;;;;;;1.92;0.65;;;23.30;99.90;;;;;;4939641;28;20043;-74
2022/03/16 08:30:54;;;;;;;2.50;0.80;;;23.30;99.90;;;;;;4931424;29;20028;-74
2022/03/16 08:33:23;;;;;;;5.20;1.40;;;23.20;99.90;;;;;;4931916;29;20114;-77
2022/03/16 08:35:51;;;;;;;3.75;0.75;;;23.10;99.90;;;;;;4928312;29;20046;-75
2022/03/16 08:38:19;;;;;;;5.38;0.93;;;23.00;99.90;;;;;;4931762;29;20040;-74
2022/03/16 08:40:46;;;;;;;2.30;0.40;;;22.90;99.90;;;;;;4932399;29;20039;-75
2022/03/16 08:43:14;;;;;;;3.20;0.68;;;22.70;99.90;;;;;;4932931;29;20123;-75
2022/03/16 08:45:41;;;;;;;4.68;1.25;;;22.60;99.90;;;;;;4934001;29;20028;-75
2022/03/16 08:48:08;;;;;;;3.90;1.05;;;22.60;99.90;;;;;;4934465;29;20051;-76
2022/03/16 08:50:36;;;;;;;2.88;1.00;;;22.50;99.90;;;;;;4932930;28;20703;-75
2022/03/16 08:53:03;;;;;;;5.78;1.38;;;22.50;99.90;;;;;;4935796;29;20074;-75
2022/03/16 08:55:30;;;;;;;5.90;1.67;;;22.50;99.90;;;;;;4932521;28;20028;-75
2022/03/16 08:57:58;;;;;;;3.20;1.58;;;22.40;99.90;;;;;;4932851;29;20427;-75
2022/03/16 09:00:26;;;;;;;3.28;0.90;;;22.40;99.90;;;;;;4928192;29;20046;-75
2022/03/16 09:02:53;;;;;;;4.95;1.40;;;22.40;99.90;;;;;;4929085;29;20134;-74
2022/03/16 09:05:21;;;;;;;9.63;0.98;;;22.50;99.90;;;;;;4932059;29;20533;-75
2022/03/16 09:07:48;;;;;;;6.18;1.13;;;22.50;99.90;;;;;;4928085;29;20039;-75
2022/03/16 09:10:16;;;;;;;5.28;1.00;;;22.50;99.90;;;;;;4924801;28;20024;-75
2022/03/16 09:12:43;;;;;;;6.45;1.35;;;22.50;99.90;;;;;;4927319;29;20453;-75
2022/03/16 09:15:11;;;;;;;6.72;1.75;;;22.50;99.90;;;;;;4927249;29;20024;-76
2022/03/16 09:17:38;;;;;;;5.57;1.73;;;22.50;99.90;;;;;;4929979;29;20126;-76
2022/03/16 09:20:07;;;;;;;7.22;2.85;;;22.50;99.90;;;;;;4928228;29;20090;-75
2022/03/16 09:22:34;;;;;;;11.70;1.85;;;22.50;99.90;;;;;;4927910;29;20024;-76
2022/03/16 09:25:02;;;;;;;6.03;1.45;;;22.40;99.90;;;;;;4930648;29;20024;-75
2022/03/16 09:27:29;;;;;;;5.90;1.30;;;22.30;99.90;;;;;;4928933;28;20032;-74
2022/03/16 09:29:57;;;;;;;7.55;0.98;;;22.30;99.90;;;;;;4929956;29;20039;-74
2022/03/16 09:32:24;;;;;;;6.18;1.10;;;22.30;99.90;;;;;;4931119;28;20419;-76
2022/03/16 09:34:52;;;;;;;7.88;2.40;;;22.30;99.90;;;;;;4921839;29;20074;-74
2022/03/16 09:37:19;;;;;;;5.65;1.52;;;22.30;99.90;;;;;;4924462;28;20502;-75
2022/03/16 09:39:47;;;;;;;9.50;1.90;;;22.30;99.90;;;;;;4924481;29;20032;-76
2022/03/16 09:42:14;;;;;;;6.72;1.17;;;22.40;99.90;;;;;;4925196;29;20083;-74
2022/03/16 09:44:43;;;;;;;5.90;0.98;;;22.40;99.90;;;;;;4927369;29;20035;-76
2022/03/16 09:47:13;;;;;;;4.38;0.75;;;22.40;99.90;;;;;;4933987;29;20446;-76
2022/03/16 09:49:41;;;;;;;4.38;0.90;;;22.30;99.90;;;;;;4931834;29;20043;-76
2022/03/16 09:52:09;;;;;;;5.53;1.27;;;22.20;99.90;;;;;;4937614;29;20024;-75
2022/03/16 09:54:37;;;;;;;8.23;1.98;;;22.10;99.90;;;;;;4924067;29;20399;-75
2022/03/16 09:57:05;;;;;;;5.35;1.27;;;22.00;99.90;;;;;;4934591;28;20394;-75
2022/03/16 09:59:32;;;;;;;7.85;1.77;;;21.90;99.90;;;;;;4920844;29;20488;-75
2022/03/16 10:02:10;;;;;;;4.57;1.33;;;21.80;99.90;;;;;;4928079;28;20419;-75
2022/03/16 10:04:39;;;;;;;9.80;1.33;;;21.80;99.90;;;;;;4931173;29;20098;-75
2022/03/16 10:07:06;;;;;;;5.38;1.40;;;21.70;99.90;;;;;;4931616;28;20078;-75
2022/03/16 10:15:21;;;;;;;3.55;0.73;;;21.50;99.90;;;;;;4929481;29;20081;-75
2022/03/16 10:18:06;;;;;;;11.77;1.30;;;21.40;99.90;;;;;;4934250;29;20115;-75
2022/03/16 10:20:35;;;;;;;6.05;1.05;;;21.40;99.90;;;;;;4932873;28;20035;-75
2022/03/16 10:23:10;;;;;;;5.95;1.10;;;21.40;99.90;;;;;;4933855;29;20042;-76
2022/03/16 10:25:45;;;;;;;7.73;2.20;;;21.40;99.90;;;;;;4935446;28;20034;-76
2022/03/16 10:28:19;;;;;;;4.97;0.97;;;21.40;99.90;;;;;;4935793;29;20080;-75
2022/03/16 10:30:58;;;;;;;7.63;1.17;;;21.30;99.90;;;;;;4932072;29;20926;-76
2022/03/16 10:33:33;;;;;;;4.72;1.25;;;21.30;99.90;;;;;;4932318;29;20039;-74
2022/03/16 10:36:09;;;;;;;4.93;0.70;;;21.30;99.90;;;;;;4936329;29;20038;-74
2022/03/16 10:38:44;;;;;;;6.22;0.90;;;21.30;99.90;;;;;;4935098;29;20448;-75
2022/03/16 10:46:55;;;;;;;6.38;0.57;;;21.20;99.90;;;;;;4934736;29;20292;-75
2022/03/16 10:49:23;;;;;;;4.20;0.90;;;21.20;99.90;;;;;;4935361;29;20054;-74
2022/03/16 10:52:14;;;;;;;5.43;0.80;;;21.20;99.90;;;;;;4931858;28;20541;-73
2022/03/16 10:54:43;;;;;;;5.80;1.08;;;21.10;99.90;;;;;;4930094;29;20051;-74
2022/03/16 10:57:13;;;;;;;6.50;1.55;;;21.10;99.90;;;;;;4931262;29;20110;-74
2022/03/16 10:59:43;;;;;;;4.10;0.80;;;21.00;99.90;;;;;;4934887;29;20059;-74
2022/03/16 11:02:14;;;;;;;5.18;0.82;;;21.00;99.90;;;;;;4932946;28;20075;-77
2022/03/16 11:04:50;;;;;;;3.25;1.27;;;20.90;99.90;;;;;;4928593;29;20062;-78
2022/03/16 11:07:18;;;;;;;;;;;20.90;99.90;;;;;;4932511;28;20031;-77
2022/03/16 11:09:48;;;;;;;3.00;1.05;;;20.80;99.90;;;;;;4927681;29;20005;-77
2022/03/16 11:15:04;;;;;;;11.32;1.23;;;20.70;99.90;;;;;;4933374;29;20095;-77
2022/03/16 11:17:34;;;;;;;5.03;1.45;;;20.70;99.90;;;;;;4928237;29;20083;-75
2022/03/16 11:20:07;;;;;;;3.53;0.73;;;20.70;99.90;;;;;;4929464;29;20032;-76
2022/03/16 11:22:37;;;;;;;4.10;0.60;;;20.70;99.90;;;;;;4933497;29;20061;-76
2022/03/16 11:25:11;;;;;;;2.90;0.75;;;20.60;99.90;;;;;;4931122;29;20023;-75
2022/03/16 11:27:49;;;;;;;10.50;1.38;;;20.60;99.90;;;;;;4927259;29;20046;-77
2022/03/16 11:30:33;;;;;;;5.32;1.13;;;20.60;99.90;;;;;;4929671;28;20036;-73
2022/03/16 11:33:12;;;;;;;5.05;0.93;;;20.60;99.90;;;;;;4921674;29;20063;-75
2022/03/16 11:35:45;;;;;;;5.05;1.17;;;20.50;99.90;;;;;;4926193;29;20028;-73
2022/03/16 11:38:15;;;;;;;3.85;0.98;;;20.50;99.90;;;;;;4926081;29;20107;-76
2022/03/16 11:40:49;;;;;;;4.72;0.90;;;20.50;99.90;;;;;;4929567;29;20055;-79
2022/03/16 11:43:21;;;;;;;2.63;1.25;;;20.40;99.90;;;;;;4928960;29;20039;-77
2022/03/16 11:45:54;;;;;;;4.05;1.20;;;20.40;99.90;;;;;;4931791;29;20028;-76
2022/03/16 11:48:34;;;;;;;4.82;1.00;;;20.40;99.90;;;;;;4933708;29;20039;-77
2022/03/16 11:51:13;;;;;;;6.22;1.42;;;20.40;99.90;;;;;;4929627;29;20063;-75
2022/03/16 11:56:20;;;;;;;7.57;1.92;;;20.40;99.90;;;;;;4927024;29;20092;-75
2022/03/16 11:58:49;;;;;;;7.10;2.35;;;20.30;99.90;;;;;;4931648;29;20102;-75
2022/03/16 12:01:39;;;;;;;9.13;2.78;;;20.30;99.90;;;;;;4931824;29;20430;-73
2022/03/16 12:04:15;;;;;;;7.63;2.05;;;20.30;99.90;;;;;;4932698;29;20046;-74
2022/03/16 12:06:54;;;;;;;7.53;2.35;;;20.20;99.90;;;;;;4928058;29;20075;-75
2022/03/16 12:09:44;;;;;;;11.13;2.40;;;20.20;99.90;;;;;;4946352;28;20109;-73
2022/03/16 12:12:51;;;;;;;6.88;2.22;;;20.20;99.90;;;;;;4928750;29;20427;-75
2022/03/16 12:15:24;;;;;;;4.90;1.40;;;20.20;99.90;;;;;;4927759;29;20031;-74
2022/03/16 12:17:55;;;;;;;7.70;2.10;;;20.10;99.90;;;;;;4934339;29;20070;-74
2022/03/16 12:20:30;;;;;;;8.20;2.38;;;20.10;99.90;;;;;;4934470;29;20131;-74
2022/03/16 12:23:02;;;;;;;9.15;2.22;;;20.10;99.90;;;;;;4933989;29;20028;-73
2022/03/16 12:25:35;;;;;;;4.38;2.47;;;20.10;99.90;;;;;;4929491;29;20034;-73
2022/03/16 12:31:01;;;;;;;2.88;1.60;;;20.00;99.90;;;;;;4932327;29;20078;-74
2022/03/16 12:33:33;;;;;;;9.32;2.00;;;20.00;99.90;;;;;;4920760;29;20042;-75
2022/03/16 12:36:14;;;;;;;8.05;1.80;;;20.00;99.90;;;;;;4930222;29;20039;-74
2022/03/16 12:38:47;;;;;;;9.18;1.58;;;20.00;99.90;;;;;;4934475;29;20039;-74
2022/03/16 12:44:07;;;;;;;5.50;2.15;;;20.00;99.90;;;;;;4932620;29;20031;-73
2022/03/16 12:46:34;;;;;;;4.25;1.73;;;20.00;99.90;;;;;;4928796;29;20482;-76
2022/03/16 12:49:12;;;;;;;8.38;2.45;;;19.90;99.90;;;;;;4930195;29;20036;-74
2022/03/16 12:51:49;;;;;;;3.13;0.93;;;19.90;99.90;;;;;;4933117;28;20040;-73
2022/03/16 12:54:26;;;;;;;4.97;1.60;;;19.90;99.90;;;;;;4930637;29;20367;-74
2022/03/16 12:56:58;;;;;;;7.45;1.25;;;19.90;99.90;;;;;;4928062;29;20027;-73
2022/03/16 12:59:27;;;;;;;4.60;1.33;;;19.90;99.90;;;;;;4932525;29;20078;-74
2022/03/16 13:01:57;;;;;;;3.03;1.33;;;19.90;99.90;;;;;;4927878;29;20062;-73
2022/03/16 13:04:26;;;;;;;7.55;2.25;;;20.00;99.90;;;;;;4918699;29;20031;-74
2022/03/16 13:06:56;;;;;;;4.30;1.20;;;20.00;99.90;;;;;;4932289;29;20513;-73
2022/03/16 13:09:32;;;;;;;6.60;1.25;;;20.10;99.90;;;;;;4925513;29;20669;-76
2022/03/16 13:12:03;;;;;;;3.63;1.58;;;20.10;99.90;;;;;;4927327;29;20482;-73
2022/03/16 13:14:33;;;;;;;7.65;1.00;;;20.10;99.90;;;;;;4929235;29;20059;-74
2022/03/16 13:17:00;;;;;;;5.30;1.20;;;20.10;99.90;;;;;;4931688;29;20371;-77
2022/03/16 13:19:33;;;;;;;5.35;1.65;;;20.10;99.90;;;;;;4924543;28;20060;-75